Time;durP1;ratioP1;P1;durP2;ratioP2;P2;SDS_P1;SDS_P2;PMS_P1;PMS_P2;Temp;Humidity;BMP_temperature;BMP_pressure;BME280_temperature;BME280_humidity;BME280_pressure;Samples;Min_cycle;Max_cycle;Signal;HPM_P1;HPM_P2
2022/10/11 00:00:09;;;;;;;5.57;3.73;;;16.00;99.90;;;16.43;nan;101195.03;4994672;28;20636;-64
2022/10/11 00:02:36;;;;;;;5.47;3.00;;;16.00;99.90;;;16.43;nan;101196.81;4994039;28;20642;-65
2022/10/11 00:05:03;;;;;;;7.10;4.00;;;15.90;99.90;;;16.46;nan;101201.84;5008503;28;20637;-65
2022/10/11 00:07:30;;;;;;;9.83;3.77;;;15.90;99.90;;;16.24;nan;101197.59;4992444;28;20720;-65
2022/10/11 00:09:57;;;;;;;6.70;3.27;;;15.90;99.90;;;16.41;nan;101204.88;4992522;28;20638;-65
2022/10/11 00:12:24;;;;;;;7.67;3.97;;;15.90;99.90;;;16.41;nan;101210.13;5010781;28;20641;-65
2022/10/11 00:14:51;;;;;;;6.03;3.70;;;15.80;99.90;;;16.28;nan;101202.47;5011344;28;20614;-65
2022/10/11 00:17:18;;;;;;;12.03;4.60;;;15.80;99.90;;;16.36;nan;101209.69;5010869;28;20648;-65
2022/10/11 00:19:45;;;;;;;11.67;4.60;;;15.80;99.90;;;16.39;nan;101208.59;5010198;28;20626;-65
2022/10/11 00:22:12;;;;;;;5.33;3.53;;;15.80;99.90;;;16.27;nan;101210.47;5002539;28;20663;-66
2022/10/11 00:24:39;;;;;;;7.20;4.07;;;15.80;99.90;;;16.30;nan;101212.84;5011665;28;20618;-64
2022/10/11 00:27:06;;;;;;;7.67;4.70;;;15.80;99.90;;;16.33;nan;101210.78;5010080;28;21013;-64
2022/10/11 00:29:32;;;;;;;9.70;4.90;;;15.70;99.90;;;16.28;nan;101205.09;5010530;28;21223;-64
2022/10/11 00:31:59;;;;;;;9.13;5.40;;;15.80;99.90;;;16.37;nan;101216.63;5009310;28;20669;-65
2022/10/11 00:34:26;;;;;;;10.30;5.43;;;15.80;99.90;;;16.30;nan;101215.50;5010471;28;20998;-64
2022/10/11 00:36:53;;;;;;;10.87;5.97;;;15.70;99.90;;;16.32;nan;101213.56;5012369;28;20725;-64
2022/10/11 00:39:20;;;;;;;6.77;4.77;;;15.70;99.90;;;16.37;nan;101218.44;4982875;28;20708;-64
2022/10/11 00:41:48;;;;;;;10.73;5.80;;;15.70;99.90;;;16.30;nan;101213.69;4997181;28;20669;-65
2022/10/11 00:44:22;;;;;;;11.37;5.50;;;15.70;99.90;;;16.31;nan;101214.53;4996278;28;20638;-64
2022/10/11 00:46:58;;;;;;;9.10;5.57;;;15.70;99.90;;;16.31;nan;101215.34;4997107;28;20673;-64
2022/10/11 00:49:40;;;;;;;21.50;6.90;;;15.80;99.90;;;16.17;nan;101220.13;4979243;28;20621;-64
2022/10/11 00:52:14;;;;;;;19.30;7.50;;;15.70;99.90;;;16.07;nan;101221.91;4976453;28;20669;-65
2022/10/11 00:54:44;;;;;;;13.90;8.07;;;15.70;99.90;;;16.06;nan;101222.84;4999156;28;20639;-64
2022/10/11 00:57:17;;;;;;;14.43;7.73;;;15.60;99.90;;;16.04;nan;101230.06;4996062;28;20633;-65
2022/10/11 00:59:49;;;;;;;12.87;7.97;;;15.60;99.90;;;15.91;nan;101229.41;4995989;28;21159;-64
2022/10/11 01:02:18;;;;;;;14.87;8.30;;;15.50;99.90;;;15.87;nan;101220.97;4981619;28;20670;-63
2022/10/11 01:04:45;;;;;;;19.10;8.87;;;15.50;99.90;;;15.79;nan;101228.69;4976137;28;20641;-63
2022/10/11 01:07:13;;;;;;;16.53;8.43;;;15.40;99.90;;;15.70;nan;101228.59;4978088;28;21494;-63
2022/10/11 01:09:39;;;;;;;12.00;8.13;;;15.40;99.90;;;15.82;nan;101230.22;4991704;28;20627;-64
2022/10/11 01:12:18;;;;;;;23.10;8.73;;;15.30;99.90;;;15.89;nan;101233.97;4989882;28;21275;-64
2022/10/11 01:14:56;;;;;;;23.03;9.90;;;15.40;99.90;;;15.77;nan;101229.75;4979665;28;20610;-64
2022/10/11 01:17:59;;;;;;;19.63;10.23;;;15.30;99.90;;;15.78;nan;101218.28;4994880;28;20768;-65
2022/10/11 01:20:44;;;;;;;19.13;10.50;;;15.30;99.90;;;15.67;nan;101228.88;4973174;28;20646;-64
2022/10/11 01:23:55;;;;;;;15.73;9.20;;;15.30;99.90;;;15.70;nan;101229.44;4997682;28;21231;-63
2022/10/11 01:27:02;;;;;;;18.50;8.27;;;15.20;99.90;;;15.79;nan;101225.19;4998316;28;21007;-64
2022/10/11 01:30:12;;;;;;;15.40;8.57;;;15.30;99.90;;;15.69;nan;101229.56;4996439;28;21015;-66
2022/10/11 01:33:19;;;;;;;17.67;9.60;;;15.20;99.90;;;15.63;nan;101228.28;5000890;28;20666;-65
2022/10/11 01:36:26;;;;;;;17.70;9.90;;;15.20;99.90;;;15.64;nan;101226.50;4932139;28;20637;-64
2022/10/11 01:39:05;;;;;;;28.50;10.77;;;15.20;99.90;;;15.63;nan;101232.72;4988007;28;20641;-64
2022/10/11 01:41:48;;;;;;;19.93;10.80;;;15.20;99.90;;;15.58;nan;101238.38;4980007;28;20610;-64
2022/10/11 01:44:16;;;;;;;21.70;11.53;;;15.20;99.90;;;15.51;nan;101242.47;4980283;28;20609;-64
2022/10/11 01:46:43;;;;;;;26.37;14.33;;;15.10;99.90;;;15.57;nan;101239.31;4992046;28;20653;-62
2022/10/11 01:49:10;;;;;;;28.50;14.27;;;15.10;99.90;;;15.41;nan;101237.09;4975843;28;20618;-63
2022/10/11 01:51:44;;;;;;;20.93;11.53;;;15.10;99.90;;;15.39;nan;101248.69;4975383;28;21175;-64
2022/10/11 01:54:36;;;;;;;25.90;13.50;;;15.00;99.90;;;15.40;nan;101253.81;4991575;28;20614;-64
2022/10/11 01:57:51;;;;;;;31.73;15.30;;;15.00;99.90;;;15.26;nan;101256.75;4992596;28;21225;-63
2022/10/11 02:00:22;;;;;;;26.37;11.90;;;14.90;99.90;;;15.39;nan;101257.44;4993369;28;20583;-63
2022/10/11 02:03:05;;;;;;;17.70;8.17;;;14.90;99.90;;;15.37;nan;101269.88;5004059;28;20844;-64
2022/10/11 02:05:53;;;;;;;24.57;8.30;;;14.90;99.90;;;15.49;nan;101268.06;4984474;28;20602;-64
2022/10/11 02:08:25;;;;;;;23.07;13.00;;;15.00;99.90;;;15.60;nan;101273.28;4979010;28;20662;-65
2022/10/11 02:11:16;;;;;;;27.27;15.00;;;15.00;99.90;;;15.46;nan;101271.75;5013865;28;21092;-63
2022/10/11 02:14:20;;;;;;;29.20;15.43;;;15.00;99.90;;;15.48;nan;101274.28;4993522;28;21023;-61
2022/10/11 02:16:53;;;;;;;31.17;15.30;;;15.00;99.90;;;15.36;nan;101273.44;4987539;28;21186;-64
2022/10/11 02:19:27;;;;;;;32.23;13.70;;;15.00;99.90;;;15.41;nan;101275.72;4990208;28;21235;-63
2022/10/11 02:22:01;;;;;;;26.47;14.77;;;14.90;99.90;;;15.31;nan;101278.25;4994933;28;20669;-64
2022/10/11 02:24:32;;;;;;;27.07;13.47;;;14.90;99.90;;;15.25;nan;101280.53;4995841;28;20593;-64
2022/10/11 02:27:03;;;;;;;36.53;14.60;;;14.90;99.90;;;15.34;nan;101277.16;4993017;28;20621;-65
2022/10/11 02:29:35;;;;;;;27.37;13.80;;;14.90;99.90;;;15.31;nan;101283.50;4994644;28;20621;-63
2022/10/11 02:32:02;;;;;;;25.37;13.03;;;14.90;99.90;;;15.32;nan;101279.94;4993155;28;21225;-63
2022/10/11 02:34:40;;;;;;;22.97;13.27;;;14.80;99.90;;;15.17;nan;101273.28;4997417;28;20635;-64
2022/10/11 02:37:21;;;;;;;24.73;13.70;;;14.80;99.90;;;15.16;nan;101276.03;4975172;28;20597;-64
2022/10/11 02:40:26;;;;;;;29.93;14.47;;;14.80;99.90;;;15.12;nan;101278.06;4998619;28;20614;-63
2022/10/11 02:43:16;;;;;;;28.50;14.67;;;14.80;99.90;;;15.12;nan;101285.94;4991683;28;21198;-64
2022/10/11 02:45:50;;;;;;;24.80;13.07;;;14.70;99.90;;;14.93;nan;101285.75;4992780;28;20718;-65
2022/10/11 02:48:17;;;;;;;27.00;15.03;;;14.60;99.90;;;14.95;nan;101289.09;5000760;28;20670;-63
2022/10/11 02:50:45;;;;;;;32.67;16.80;;;14.60;99.90;;;14.80;nan;101285.03;5008141;28;20639;-63
2022/10/11 02:53:12;;;;;;;25.37;14.83;;;14.50;99.90;;;14.93;nan;101291.00;4979406;28;20680;-64
2022/10/11 02:55:39;;;;;;;23.43;13.77;;;14.50;99.90;;;14.85;nan;101292.56;4991303;28;20688;-64
2022/10/11 02:58:06;;;;;;;24.30;13.00;;;14.50;99.90;;;14.92;nan;101288.50;4959575;28;20631;-64
2022/10/11 03:00:33;;;;;;;24.90;12.37;;;14.50;99.90;;;14.72;nan;101283.03;4991113;28;20641;-64
2022/10/11 03:03:00;;;;;;;22.97;11.27;;;14.40;99.90;;;14.74;nan;101306.56;4992039;28;20688;-64
2022/10/11 03:05:27;;;;;;;23.57;13.13;;;14.30;99.90;;;14.72;nan;101298.81;4997240;28;20683;-63
2022/10/11 03:07:53;;;;;;;25.63;12.20;;;14.40;99.90;;;14.75;nan;101297.72;5010119;28;20670;-64
2022/10/11 03:10:20;;;;;;;23.93;12.20;;;14.40;99.90;;;14.84;nan;101297.00;4993072;28;20587;-64
2022/10/11 03:12:47;;;;;;;19.57;10.60;;;14.40;99.90;;;14.76;nan;101302.00;5009695;28;20638;-65
2022/10/11 03:15:14;;;;;;;19.37;10.33;;;14.40;99.90;;;14.68;nan;101307.88;5002895;28;20618;-64
2022/10/11 03:17:41;;;;;;;21.67;9.77;;;14.40;99.90;;;14.72;nan;101313.72;4992078;28;20632;-65
2022/10/11 03:20:09;;;;;;;21.07;12.67;;;14.40;99.90;;;14.65;nan;101312.56;4989974;28;20634;-64
2022/10/11 03:22:35;;;;;;;15.67;8.40;;;14.30;99.90;;;14.68;nan;101322.78;5008144;28;20668;-66
2022/10/11 03:25:03;;;;;;;16.50;9.37;;;14.30;99.90;;;14.71;nan;101319.94;5011038;28;20629;-64
2022/10/11 03:27:32;;;;;;;13.50;8.10;;;14.30;99.90;;;14.72;nan;101311.94;5010144;28;21244;-64
2022/10/11 03:29:59;;;;;;;14.17;9.10;;;14.30;99.90;;;14.80;nan;101316.56;4993403;28;20614;-64
2022/10/11 03:32:26;;;;;;;17.97;8.83;;;14.30;99.90;;;14.78;nan;101326.38;5035603;23;20643;-68
2022/10/11 03:34:53;;;;;;;14.13;8.70;;;14.30;99.90;;;14.81;nan;101323.50;4986295;28;20610;-66
2022/10/11 03:37:20;;;;;;;19.87;9.03;;;14.30;99.90;;;14.80;nan;101318.38;5018421;28;20987;-66
2022/10/11 03:39:47;;;;;;;13.63;7.90;;;14.30;99.90;;;14.86;nan;101321.38;5031232;28;20620;-66
2022/10/11 03:42:14;;;;;;;16.50;8.00;;;14.40;99.90;;;14.89;nan;101317.63;5012250;28;20651;-66
2022/10/11 03:44:41;;;;;;;18.43;10.23;;;14.40;99.90;;;14.76;nan;101310.72;5030519;28;20609;-65
2022/10/11 03:47:09;;;;;;;17.87;10.23;;;14.40;99.90;;;14.74;nan;101314.44;5010628;28;20634;-67
2022/10/11 03:49:36;;;;;;;21.80;8.40;;;14.40;99.90;;;14.60;nan;101330.44;5011184;28;20667;-66
2022/10/11 03:52:08;;;;;;;16.00;9.00;;;14.30;99.90;;;14.66;nan;101332.59;5010487;28;21019;-68
2022/10/11 03:54:35;;;;;;;9.57;6.20;;;14.30;99.90;;;14.38;nan;101333.03;5016853;28;20634;-66
2022/10/11 03:57:02;;;;;;;5.90;3.50;;;14.20;99.90;;;14.39;nan;101335.56;5010520;28;20625;-67
2022/10/11 03:59:29;;;;;;;3.17;2.63;;;14.10;99.90;;;14.32;nan;101333.50;5010871;28;20634;-65
2022/10/11 04:01:56;;;;;;;4.30;2.00;;;14.00;99.90;;;14.25;nan;101334.91;5031267;28;21206;-66
2022/10/11 04:04:23;;;;;;;2.80;2.13;;;14.00;99.90;;;14.27;nan;101343.53;5030140;28;20648;-66
2022/10/11 04:06:50;;;;;;;2.97;1.50;;;13.90;99.90;;;14.12;nan;101349.94;5029848;28;20644;-66
2022/10/11 04:09:17;;;;;;;5.23;2.03;;;13.90;99.90;;;14.09;nan;101339.66;4996065;28;20664;-66
2022/10/11 04:11:44;;;;;;;2.70;1.53;;;13.80;99.90;;;14.21;nan;101349.22;5030144;28;21210;-65
2022/10/11 04:14:10;;;;;;;2.50;1.60;;;13.80;99.90;;;14.12;nan;101352.56;5027592;28;21042;-67
2022/10/11 04:16:38;;;;;;;3.67;2.13;;;13.80;99.90;;;14.16;nan;101352.19;5011745;28;20618;-65
2022/10/11 04:19:06;;;;;;;4.33;2.07;;;13.80;99.90;;;14.01;nan;101359.41;5010441;28;20637;-65
2022/10/11 04:21:32;;;;;;;4.17;1.30;;;13.70;99.90;;;14.07;nan;101359.91;5011965;28;20632;-66
2022/10/11 04:23:59;;;;;;;5.70;1.80;;;13.70;99.90;;;14.07;nan;101359.91;5010811;28;20674;-65
2022/10/11 04:26:26;;;;;;;2.00;1.70;;;13.70;99.90;;;13.96;nan;101351.06;5010642;28;20632;-66
2022/10/11 04:28:53;;;;;;;3.00;1.93;;;13.60;99.90;;;13.90;nan;101364.66;5017287;28;20665;-65
2022/10/11 04:31:20;;;;;;;6.20;1.80;;;13.60;99.90;;;13.99;nan;101371.00;5027243;28;20633;-65
2022/10/11 04:33:47;;;;;;;4.17;1.77;;;13.60;99.90;;;13.87;nan;101371.88;5029464;28;20659;-67
2022/10/11 04:36:14;;;;;;;3.40;1.27;;;13.60;99.90;;;13.97;nan;101373.72;5015371;28;21201;-66
2022/10/11 04:38:41;;;;;;;2.37;1.70;;;13.60;99.90;;;13.77;nan;101376.16;5013990;28;20632;-67
2022/10/11 04:41:11;;;;;;;5.50;1.80;;;13.50;99.90;;;13.78;nan;101376.03;5030335;28;20628;-66
2022/10/11 04:43:38;;;;;;;3.67;2.00;;;13.50;99.90;;;13.89;nan;101389.19;5026855;28;21001;-66
2022/10/11 04:46:06;;;;;;;1.43;1.30;;;13.50;99.90;;;13.98;nan;101396.41;5010113;28;20641;-66
2022/10/11 04:48:33;;;;;;;5.00;1.60;;;13.60;99.90;;;13.90;nan;101393.50;5009667;28;20665;-67
2022/10/11 04:51:00;;;;;;;6.73;1.43;;;13.60;99.90;;;13.81;nan;101396.78;5009689;28;20634;-66
2022/10/11 04:53:27;;;;;;;5.80;1.70;;;13.50;99.90;;;13.83;nan;101394.91;5012530;28;20664;-67
2022/10/11 04:56:00;;;;;;;5.87;1.90;;;13.50;99.90;;;13.86;nan;101392.03;5009974;28;20628;-66
2022/10/11 04:58:30;;;;;;;7.10;1.80;;;13.50;99.90;;;13.67;nan;101401.38;5009529;28;20630;-65
2022/10/11 05:00:57;;;;;;;8.07;1.80;;;13.40;99.90;;;13.76;nan;101409.41;4998471;28;21204;-66
2022/10/11 05:03:25;;;;;;;2.90;1.57;;;13.40;99.90;;;13.67;nan;101411.88;5010560;28;20664;-65
2022/10/11 05:05:53;;;;;;;6.03;1.80;;;13.40;99.90;;;13.59;nan;101408.94;5010133;28;20614;-64
2022/10/11 05:08:22;;;;;;;5.40;1.47;;;13.30;99.90;;;13.62;nan;101413.97;5011590;28;20671;-67
2022/10/11 05:11:06;;;;;;;2.20;1.20;;;13.30;99.90;;;13.49;nan;101429.75;5031073;28;20620;-66
2022/10/11 05:13:35;;;;;;;1.97;1.17;;;13.20;99.90;;;13.51;nan;101413.91;5029893;28;20651;-66
2022/10/11 05:16:04;;;;;;;5.27;1.50;;;13.20;99.90;;;13.39;nan;101418.25;5010357;28;21282;-66
2022/10/11 05:18:36;;;;;;;1.23;0.83;;;13.10;99.90;;;13.41;nan;101432.09;4993688;28;20979;-68
2022/10/11 05:21:03;;;;;;;5.17;1.87;;;13.10;99.90;;;13.18;nan;101425.84;4992431;28;20629;-66
2022/10/11 05:23:32;;;;;;;3.63;1.47;;;13.10;99.90;;;13.31;nan;101422.38;5014387;28;20659;-66
2022/10/11 05:25:59;;;;;;;5.90;1.73;;;13.00;99.90;;;13.19;nan;101426.69;5013057;28;20671;-67
2022/10/11 05:28:26;;;;;;;2.93;1.90;;;12.90;99.90;;;13.22;nan;101440.38;5013564;28;20728;-67
2022/10/11 05:30:54;;;;;;;4.10;1.00;;;13.00;99.90;;;13.05;nan;101439.91;5020594;28;20640;-66
2022/10/11 05:33:22;;;;;;;5.40;1.60;;;12.90;99.90;;;13.11;nan;101442.94;5032786;28;20655;-66
2022/10/11 05:35:49;;;;;;;2.73;1.93;;;12.80;99.90;;;12.96;nan;101440.50;5032724;28;20632;-66
2022/10/11 05:38:16;;;;;;;4.13;1.63;;;12.70;99.90;;;12.94;nan;101447.63;5033524;28;20628;-67
2022/10/11 05:40:43;;;;;;;2.87;1.37;;;12.70;99.90;;;13.09;nan;101455.31;5032768;28;20633;-67
2022/10/11 05:43:10;;;;;;;2.60;1.33;;;12.80;99.90;;;12.97;nan;101458.72;5033825;28;20640;-67
2022/10/11 05:45:39;;;;;;;4.97;1.67;;;12.70;99.90;;;12.97;nan;101457.88;5023252;28;20986;-67
2022/10/11 05:48:07;;;;;;;3.10;1.53;;;12.70;99.90;;;12.94;nan;101461.59;5013233;28;20630;-67
2022/10/11 05:50:35;;;;;;;5.07;1.33;;;12.70;99.90;;;12.90;nan;101456.66;4997874;28;20633;-67
2022/10/11 05:53:03;;;;;;;4.57;1.30;;;12.60;99.90;;;12.76;nan;101461.97;5033253;28;21293;-67
2022/10/11 05:55:36;;;;;;;2.00;1.30;;;12.50;99.90;;;12.80;nan;101466.09;5032841;28;20644;-68
2022/10/11 05:58:03;;;;;;;2.93;1.50;;;12.50;99.90;;;12.83;nan;101471.09;5010117;28;20638;-64
2022/10/11 06:00:30;;;;;;;6.50;1.97;;;12.60;99.90;;;12.72;nan;101458.75;5015610;28;20625;-67
2022/10/11 06:02:57;;;;;;;4.63;1.87;;;12.50;99.90;;;12.75;nan;101474.25;5025435;28;20661;-64
2022/10/11 06:05:24;;;;;;;4.83;1.50;;;12.50;99.90;;;12.86;nan;101481.38;5012949;28;20672;-64
2022/10/11 06:07:51;;;;;;;2.50;1.77;;;12.50;99.90;;;12.98;nan;101489.25;5012387;28;21224;-68
2022/10/11 06:10:18;;;;;;;3.93;1.80;;;12.60;99.90;;;12.91;nan;101482.72;5013885;28;21243;-64
2022/10/11 06:12:45;;;;;;;3.23;1.90;;;12.60;99.90;;;12.92;nan;101480.97;5012695;28;20657;-65
2022/10/11 06:15:12;;;;;;;2.10;1.90;;;12.60;99.90;;;13.00;nan;101494.38;5014108;28;20610;-64
2022/10/11 06:17:39;;;;;;;5.93;2.00;;;12.60;99.90;;;13.09;nan;101499.88;5018452;28;20633;-64
2022/10/11 06:20:07;;;;;;;8.33;2.10;;;12.70;99.90;;;13.07;nan;101500.91;4995720;28;20614;-65
2022/10/11 06:22:34;;;;;;;8.03;2.10;;;12.70;99.90;;;13.20;nan;101496.50;4997314;28;20719;-65
2022/10/11 06:25:01;;;;;;;5.03;2.17;;;12.80;99.90;;;13.25;nan;101504.88;5012593;28;20635;-66
2022/10/11 06:27:28;;;;;;;4.00;2.60;;;12.80;99.90;;;13.47;nan;101501.59;5017948;28;21200;-67
2022/10/11 06:29:55;;;;;;;9.40;2.30;;;12.90;99.90;;;13.45;nan;101506.09;5032718;28;20660;-65
2022/10/11 06:32:23;;;;;;;4.20;2.30;;;13.00;99.90;;;13.48;nan;101506.72;5030885;28;21191;-65
2022/10/11 06:34:49;;;;;;;5.17;2.20;;;13.00;99.90;;;13.45;nan;101506.94;5015519;28;20606;-68
2022/10/11 06:37:16;;;;;;;5.03;2.03;;;13.00;99.90;;;13.36;nan;101507.59;5032124;28;20624;-67
2022/10/11 06:39:43;;;;;;;3.00;1.70;;;13.00;99.90;;;13.44;nan;101515.75;5032354;28;20621;-65
2022/10/11 06:42:11;;;;;;;4.00;1.77;;;13.00;99.90;;;13.43;nan;101514.09;5031452;28;20630;-66
2022/10/11 06:44:38;;;;;;;9.70;2.57;;;13.00;99.90;;;13.51;nan;101519.63;5032716;28;20624;-67
2022/10/11 06:47:06;;;;;;;9.10;3.00;;;13.00;99.90;;;13.48;nan;101519.00;5030168;28;20639;-67
2022/10/11 06:49:33;;;;;;;5.40;2.10;;;13.00;99.90;;;13.52;nan;101518.66;5011949;28;20668;-66
2022/10/11 06:52:00;;;;;;;7.57;2.33;;;13.10;99.90;;;13.61;nan;101528.50;5010445;28;20636;-66
2022/10/11 06:54:27;;;;;;;5.13;1.97;;;13.10;99.90;;;13.63;nan;101531.88;5017886;28;20664;-65
2022/10/11 06:56:54;;;;;;;5.73;1.70;;;13.10;99.90;;;13.42;nan;101528.13;5011887;28;20616;-64
2022/10/11 06:59:21;;;;;;;5.60;1.60;;;13.10;99.90;;;13.57;nan;101531.44;5027844;28;21009;-65
2022/10/11 07:01:47;;;;;;;7.93;1.77;;;13.10;99.90;;;13.65;nan;101542.28;5013003;28;20629;-65
2022/10/11 07:04:14;;;;;;;6.23;1.70;;;13.20;99.90;;;13.56;nan;101549.00;5009833;28;20669;-65
2022/10/11 07:06:42;;;;;;;1.43;1.37;;;13.10;99.90;;;13.72;nan;101544.34;5012126;28;21017;-65
2022/10/11 07:09:09;;;;;;;4.87;1.97;;;13.20;99.90;;;13.72;nan;101546.13;5031898;28;20667;-67
2022/10/11 07:11:36;;;;;;;4.80;1.67;;;13.20;99.90;;;13.71;nan;101555.78;5031915;28;20617;-66
2022/10/11 07:14:06;;;;;;;3.97;1.30;;;13.20;99.90;;;13.72;nan;101557.44;5032147;28;20648;-65
2022/10/11 07:16:37;;;;;;;3.03;1.50;;;13.30;99.90;;;13.60;nan;101557.47;5031653;28;20625;-65
2022/10/11 07:19:05;;;;;;;8.07;1.63;;;13.30;99.90;;;13.73;nan;101564.38;5014488;28;20629;-65
2022/10/11 07:21:34;;;;;;;3.77;1.67;;;13.30;99.90;;;13.86;nan;101559.94;5006422;28;20630;-65
2022/10/11 07:24:01;;;;;;;2.70;1.40;;;13.30;99.90;;;14.15;nan;101575.38;4998532;28;20665;-65
2022/10/11 07:26:29;;;;;;;3.67;1.70;;;13.50;99.90;;;14.20;nan;101562.78;5013947;28;21196;-67
2022/10/11 07:29:03;;;;;;;2.70;1.10;;;13.70;99.90;;;14.86;nan;101568.34;5014059;28;20675;-66
2022/10/11 07:31:31;;;;;;;3.37;1.90;;;14.00;99.90;;;14.92;nan;101577.56;5012497;28;20642;-65
2022/10/11 07:33:57;;;;;;;4.03;2.10;;;14.20;99.90;;;15.42;nan;101580.63;5010299;28;20672;-67
2022/10/11 07:36:25;;;;;;;4.33;1.60;;;14.50;99.90;;;15.90;nan;101580.44;5011231;28;20610;-64
2022/10/11 07:38:52;;;;;;;8.47;2.73;;;14.80;99.90;;;15.80;nan;101582.13;5017761;28;20641;-64
2022/10/11 07:41:19;;;;;;;8.00;1.80;;;15.00;99.90;;;15.59;nan;101573.28;5032522;28;20613;-64
2022/10/11 07:43:48;;;;;;;4.10;1.47;;;14.90;99.90;;;15.55;nan;101580.56;5031711;28;21104;-65
2022/10/11 07:46:17;;;;;;;5.90;1.53;;;14.90;99.90;;;15.37;nan;101592.47;5014249;28;20690;-65
2022/10/11 07:48:44;;;;;;;4.20;1.70;;;14.80;99.90;;;14.65;nan;101569.97;5030985;28;20645;-65
2022/10/11 07:51:18;;;;;;;5.50;1.60;;;14.50;99.90;;;14.83;nan;101573.84;5018076;28;20637;-65
2022/10/11 07:53:52;;;;;;;6.73;1.67;;;14.30;99.90;;;14.90;nan;101582.94;5012502;28;20661;-65
2022/10/11 07:56:24;;;;;;;4.97;2.27;;;14.30;99.90;;;14.85;nan;101584.22;5010751;28;20606;-65
2022/10/11 07:58:56;;;;;;;2.30;1.17;;;14.30;99.90;;;14.90;nan;101585.56;5022572;28;20644;-65
2022/10/11 08:01:24;;;;;;;5.57;1.50;;;14.20;99.90;;;14.83;nan;101594.00;5007173;28;20641;-65
2022/10/11 08:03:51;;;;;;;4.37;1.57;;;14.20;99.90;;;15.00;nan;101586.53;4993196;28;21244;-65
2022/10/11 08:06:22;;;;;;;5.70;1.90;;;14.20;99.90;;;14.44;nan;101587.25;4993027;28;21014;-65
2022/10/11 08:08:49;;;;;;;3.73;1.43;;;14.20;99.90;;;14.60;nan;101598.34;5010715;28;20642;-65
2022/10/11 08:11:22;;;;;;;2.50;1.10;;;14.20;99.90;;;14.51;nan;101594.59;5010880;28;20626;-64
2022/10/11 08:13:49;;;;;;;6.33;1.90;;;14.00;99.90;;;14.24;nan;101580.81;4993386;28;20661;-64
2022/10/11 08:16:16;;;;;;;4.17;1.17;;;13.90;99.90;;;14.59;nan;101592.25;5009566;28;20633;-64
2022/10/11 08:18:43;;;;;;;5.40;1.50;;;14.00;99.90;;;14.50;nan;101592.09;4993423;28;20624;-65
2022/10/11 08:21:13;;;;;;;5.77;1.27;;;14.00;99.90;;;14.36;nan;101594.88;5007649;28;20656;-65
2022/10/11 08:23:41;;;;;;;1.40;1.30;;;13.90;99.90;;;14.42;nan;101600.50;5008632;28;20661;-65
2022/10/11 08:26:08;;;;;;;5.40;1.53;;;13.80;99.90;;;14.38;nan;101598.22;5009587;28;20621;-65
2022/10/11 08:28:36;;;;;;;4.27;1.13;;;13.90;99.90;;;14.35;nan;101606.34;5010354;28;20630;-65
2022/10/11 08:31:03;;;;;;;5.77;1.40;;;13.90;99.90;;;14.17;nan;101604.97;5013987;28;20641;-66
2022/10/11 08:33:30;;;;;;;4.80;1.70;;;13.80;99.90;;;14.16;nan;101609.38;5021074;28;21037;-66
2022/10/11 08:35:57;;;;;;;3.70;2.30;;;13.70;99.90;;;14.22;nan;101602.88;5030424;28;20629;-65
2022/10/11 08:38:24;;;;;;;8.70;1.70;;;13.70;99.90;;;14.27;nan;101608.66;5028846;28;21013;-66
2022/10/11 08:40:56;;;;;;;5.17;1.97;;;13.80;99.90;;;14.27;nan;101603.41;5014567;28;20639;-65
2022/10/11 08:43:45;;;;;;;5.10;1.80;;;13.80;99.90;;;14.50;nan;101613.91;4985751;28;20664;-65
2022/10/11 08:46:14;;;;;;;4.57;1.47;;;13.90;99.90;;;14.76;nan;101609.38;5008748;28;21251;-64
2022/10/11 08:48:46;;;;;;;5.27;1.43;;;14.00;99.90;;;15.05;nan;101605.44;4987386;28;20630;-66
2022/10/11 08:51:58;;;;;;;6.83;2.37;;;14.20;99.90;;;15.16;nan;101608.06;5008883;28;20982;-65
2022/10/11 08:54:53;;;;;;;3.37;1.70;;;14.40;99.90;;;15.53;nan;101620.13;4998039;28;21256;-65
2022/10/11 08:57:23;;;;;;;12.90;2.63;;;14.70;99.90;;;15.62;nan;101618.59;4993645;28;20644;-65
2022/10/11 08:59:57;;;;;;;4.63;1.70;;;14.80;99.90;;;15.94;nan;101616.06;5013999;28;20702;-64
2022/10/11 09:02:29;;;;;;;7.23;1.80;;;15.00;99.90;;;15.86;nan;101623.75;4995929;28;20594;-65
2022/10/11 09:05:17;;;;;;;0.73;0.73;;;15.10;99.90;;;16.04;nan;101624.91;5004650;28;20648;-64
2022/10/11 09:07:59;;;;;;;1.07;0.90;;;15.20;99.90;;;16.30;nan;101623.69;4994067;28;20646;-65
2022/10/11 09:10:50;;;;;;;3.57;1.30;;;15.20;99.90;;;16.28;nan;101622.97;5012462;28;20669;-66
2022/10/11 09:13:33;;;;;;;3.70;1.83;;;15.30;99.90;;;16.05;nan;101618.72;5019618;28;21301;-65
2022/10/11 09:16:28;;;;;;;7.50;1.70;;;15.30;99.90;;;16.94;nan;101621.94;5013211;28;20613;-66
2022/10/11 09:19:40;;;;;;;3.67;1.30;;;15.70;99.90;;;17.42;nan;101609.91;5002939;28;21250;-65
2022/10/11 09:22:22;;;;;;;3.87;1.30;;;16.10;99.90;;;17.60;nan;101612.81;4996843;28;20640;-67
2022/10/11 09:25:00;;;;;;;4.43;1.20;;;16.40;99.90;;;17.61;nan;101611.84;5003531;28;20605;-66
2022/10/11 09:27:38;;;;;;;4.27;1.87;;;16.50;99.90;;;17.47;nan;101620.91;4993197;28;20719;-66
2022/10/11 09:30:24;;;;;;;2.97;1.77;;;16.50;99.90;;;17.60;nan;101615.44;5009161;28;21072;-67
2022/10/11 09:33:07;;;;;;;3.90;1.40;;;16.50;99.90;;;17.71;nan;101602.16;5020214;23;21931;-62
2022/10/11 09:35:40;;;;;;;7.03;1.53;;;16.90;99.90;;;18.50;nan;101615.34;5028572;28;20628;-64
2022/10/11 09:38:33;;;;;;;4.97;1.70;;;17.20;99.90;;;19.24;nan;101607.66;4993827;28;20638;-63
2022/10/11 09:41:20;;;;;;;4.13;1.43;;;17.50;99.90;;;21.33;nan;101607.38;4966994;28;20643;-64
2022/10/11 09:43:50;;;;;;;6.30;1.70;;;18.60;99.90;;;21.17;nan;101596.63;5017838;28;20667;-63
2022/10/11 09:46:39;;;;;;;1.10;1.00;;;19.10;99.90;;;20.48;nan;101603.66;5008774;28;20645;-63
2022/10/11 09:49:14;;;;;;;5.30;1.70;;;19.10;99.90;;;20.45;nan;101601.28;4991882;28;20637;-64
2022/10/11 09:51:50;;;;;;;4.90;1.63;;;19.00;99.90;;;19.73;nan;101601.25;4992927;28;20635;-63
2022/10/11 09:54:21;;;;;;;5.27;1.70;;;18.70;99.90;;;18.95;nan;101593.66;4994098;28;20661;-64
2022/10/11 09:56:47;;;;;;;5.97;1.83;;;18.20;99.90;;;19.21;nan;101603.47;4991525;28;20966;-63
2022/10/11 09:59:30;;;;;;;5.03;2.20;;;18.10;99.90;;;21.45;nan;101594.66;4981092;28;20616;-64
2022/10/11 10:02:13;;;;;;;6.83;1.90;;;19.10;99.90;;;23.50;nan;101603.56;4984102;28;20640;-63
2022/10/11 10:05:13;;;;;;;4.63;1.20;;;20.90;99.30;;;24.99;nan;101612.09;5009179;28;20661;-64
2022/10/11 10:08:07;;;;;;;9.00;2.10;;;21.70;97.40;;;25.82;nan;101602.91;4992633;28;20637;-63
2022/10/11 10:11:00;;;;;;;2.47;1.53;;;22.80;93.70;;;25.47;nan;101600.97;5004388;28;20673;-64
2022/10/11 10:13:53;;;;;;;3.03;1.90;;;22.90;92.80;;;26.84;nan;101601.81;4982266;28;20658;-65
2022/10/11 10:16:27;;;;;;;5.53;2.20;;;23.50;90.90;;;29.83;nan;101597.53;5006766;28;20637;-63
2022/10/11 10:19:03;;;;;;;4.23;1.70;;;24.70;88.20;;;30.57;nan;101605.84;4992000;28;20650;-63
2022/10/11 10:21:34;;;;;;;5.23;1.50;;;26.20;78.70;;;32.13;nan;101610.78;5014040;28;20613;-64
2022/10/11 10:24:06;;;;;;;1.83;1.40;;;26.90;74.90;;;32.54;nan;101598.38;5008869;28;20658;-64
2022/10/11 10:26:33;;;;;;;3.50;1.50;;;27.40;72.60;;;30.46;nan;101581.47;5010243;28;20622;-65
2022/10/11 10:29:09;;;;;;;4.13;0.93;;;27.60;68.10;;;31.28;nan;101592.81;4995799;28;20673;-64
2022/10/11 10:31:48;;;;;;;5.03;1.43;;;27.40;68.60;;;29.79;nan;101590.91;5013281;28;21051;-64
2022/10/11 10:34:38;;;;;;;1.83;1.20;;;26.60;69.20;;;27.26;nan;101588.31;5016845;28;21288;-65
2022/10/11 10:37:34;;;;;;;5.70;1.63;;;25.10;70.30;;;25.33;nan;101577.72;4984763;28;20621;-63
2022/10/11 10:40:54;;;;;;;1.60;1.50;;;24.00;72.80;;;23.18;nan;101572.47;4994184;28;20622;-63
2022/10/11 10:43:25;;;;;;;3.50;1.40;;;22.80;76.90;;;22.02;nan;101577.19;5004592;28;20662;-62
2022/10/11 10:46:16;;;;;;;6.20;1.50;;;21.70;81.10;;;21.14;nan;101575.72;5006624;28;20618;-63